createdAt,value
2022-08-09T00:00:12.905Z,99.9
2022-08-09T00:06:25.988Z,99.9
2022-08-09T00:10:26.861Z,99.9
2022-08-09T00:15:58.244Z,99.9
2022-08-09T00:20:25.562Z,99.9
2022-08-09T00:25:37.023Z,99.9
2022-08-09T00:30:42.563Z,99.9
2022-08-09T00:35:47.038Z,99.9
2022-08-09T00:41:00.247Z,99.9
2022-08-09T00:46:00.200Z,99.9
2022-08-09T00:51:13.782Z,99.9
2022-08-09T00:56:14.715Z,99.9
2022-08-09T01:01:17.017Z,99.9
2022-08-09T01:06:21.351Z,99.9
2022-08-09T01:11:20.158Z,99.9
2022-08-09T01:16:25.867Z,99.9
2022-08-09T01:21:54.575Z,99.9
2022-08-09T01:26:35.493Z,99.9
2022-08-09T01:32:36.992Z,99.9
2022-08-09T01:36:42.358Z,99.9
2022-08-09T01:42:13.470Z,99.9
2022-08-09T01:46:53.955Z,99.9
2022-08-09T01:51:56.892Z,99.9
2022-08-09T01:56:54.467Z,99.9
2022-08-09T02:02:05.390Z,99.9
2022-08-09T02:07:18.604Z,99.9
2022-08-09T02:12:23.923Z,99.9
2022-08-09T02:18:12.961Z,99.9
2022-08-09T02:22:41.290Z,99.9
2022-08-09T02:28:09.633Z,99.9
2022-08-09T02:32:33.133Z,99.9
2022-08-09T02:37:46.180Z,99.9
2022-08-09T02:42:39.922Z,99.9
2022-08-09T02:48:01.595Z,99.9
2022-08-09T02:52:49.504Z,99.9
2022-08-09T02:58:41.491Z,99.9
2022-08-09T03:03:04.142Z,99.9
2022-08-09T03:08:07.867Z,99.9
2022-08-09T03:13:17.668Z,99.9
2022-08-09T03:18:33.590Z,99.9
2022-08-09T03:23:29.400Z,99.9
2022-08-09T03:28:23.809Z,99.9
2022-08-09T03:33:58.963Z,99.9
2022-08-09T03:38:33.268Z,99.9
2022-08-09T03:43:38.559Z,99.9
2022-08-09T03:48:55.676Z,99.9
2022-08-09T03:53:51.287Z,99.9
2022-08-09T03:58:57.706Z,99.9
2022-08-09T04:04:16.355Z,99.9
2022-08-09T04:09:55.896Z,99.9
2022-08-09T04:15:29.809Z,99.9
2022-08-09T04:19:57.938Z,99.9
2022-08-09T04:24:29.857Z,99.9
2022-08-09T04:29:34.835Z,99.9
2022-08-09T04:34:34.949Z,99.9
2022-08-09T04:39:50.158Z,99.9
2022-08-09T04:44:33.061Z,99.9
2022-08-09T04:49:58.108Z,99.9
2022-08-09T04:54:40.647Z,99.9
2022-08-09T04:59:48.336Z,99.9
2022-08-09T05:05:09.585Z,99.9
2022-08-09T05:10:05.186Z,99.9
2022-08-09T05:15:52.201Z,99.9
2022-08-09T05:20:09.027Z,99.9
2022-08-09T05:25:11.839Z,99.9
2022-08-09T05:30:20.442Z,99.9
2022-08-09T05:35:25.487Z,99.9
2022-08-09T05:40:28.806Z,99.9
2022-08-09T05:46:01.083Z,99.9
2022-08-09T05:51:46.891Z,99.9
2022-08-09T05:55:40.129Z,99.9
2022-08-09T06:00:43.651Z,99.9
2022-08-09T06:06:08.264Z,99.9
2022-08-09T06:10:54.334Z,99.9
2022-08-09T06:16:00.773Z,99.9
2022-08-09T06:21:07.581Z,99.9
2022-08-09T06:26:12.918Z,99.9
2022-08-09T06:31:15.726Z,99.9
2022-08-09T06:36:29.787Z,99.9
2022-08-09T06:42:08.354Z,99.9
2022-08-09T06:46:44.209Z,99.9
2022-08-09T06:51:31.804Z,99.9
2022-08-09T06:56:34.746Z,99.9
2022-08-09T07:02:06.063Z,99.9
2022-08-09T07:06:39.009Z,99.9
2022-08-09T07:11:55.519Z,99.9
2022-08-09T07:16:59.823Z,99.9
2022-08-09T07:22:03.055Z,99.9
2022-08-09T07:26:55.439Z,99.9
2022-08-09T07:32:01.808Z,99.9
2022-08-09T07:37:15.699Z,99.9
2022-08-09T07:42:10.262Z,99.9
2022-08-09T07:47:17.605Z,99.9
2022-08-09T07:52:25.087Z,99.9
2022-08-09T07:57:47.631Z,99.9
2022-08-09T08:02:33.348Z,99.9
2022-08-09T08:09:42.502Z,99.9
2022-08-09T08:12:47.281Z,99.9
2022-08-09T08:18:00.590Z,99.9
2022-08-09T08:22:43.841Z,99.9
2022-08-09T08:27:53.508Z,99.9
2022-08-09T08:32:58.643Z,99.9
2022-08-09T08:38:13.874Z,99.9
2022-08-09T08:43:16.101Z,99.9
2022-08-09T08:48:20.147Z,99.9
2022-08-09T08:53:37.092Z,99.9
2022-08-09T08:58:28.030Z,99.9
2022-08-09T09:03:40.008Z,99.9
2022-08-09T09:08:53.188Z,99.9
2022-08-09T09:13:59.545Z,99.9
2022-08-09T09:19:21.795Z,99.9
2022-08-09T09:24:04.421Z,99.9
2022-08-09T09:29:21.472Z,99.9
2022-08-09T09:34:00.950Z,99.8
2022-08-09T09:38:54.461Z,99.8
2022-08-09T09:44:31.708Z,99.1
2022-08-09T09:49:04.504Z,99.5
2022-08-09T09:54:23.478Z,99.9
2022-08-09T09:59:26.468Z,99.8
2022-08-09T10:04:32.943Z,99.7
2022-08-09T10:09:29.056Z,98.7
2022-08-09T10:14:39.149Z,98.3
2022-08-09T10:19:46.693Z,99
2022-08-09T10:24:52.094Z,98.2
2022-08-09T10:32:38.484Z,98.1
2022-08-09T10:34:55.405Z,96.6
2022-08-09T10:39:59.580Z,94.3
2022-08-09T10:45:16.002Z,92
2022-08-09T10:50:16.966Z,90.4
2022-08-09T10:55:16.995Z,89.8
2022-08-09T11:00:27.980Z,87.3
2022-08-09T11:05:37.035Z,85.3
2022-08-09T11:10:39.924Z,83.3
2022-08-09T11:16:07.931Z,86.5
2022-08-09T11:20:38.030Z,89.5
2022-08-09T11:25:55.822Z,90.5
2022-08-09T11:30:51.992Z,90.9
2022-08-09T11:35:57.636Z,91
2022-08-09T11:41:02.277Z,91
2022-08-09T11:46:05.073Z,91.3
2022-08-09T11:54:09.497Z,90.3
2022-08-09T11:56:47.928Z,90.7
2022-08-09T12:02:54.606Z,90.1
2022-08-09T12:06:37.333Z,89.1
2022-08-09T12:12:02.823Z,87.7
2022-08-09T12:16:43.718Z,90.6
2022-08-09T12:21:53.662Z,90.4
2022-08-09T12:30:35.925Z,90.5
2022-08-09T12:32:03.464Z,90.1
2022-08-09T12:37:30.795Z,89.3
2022-08-09T12:42:03.552Z,90.3
2022-08-09T12:47:13.896Z,88
2022-08-09T12:52:15.949Z,88.5
2022-08-09T12:57:25.564Z,89.5
2022-08-09T13:02:29.285Z,88.6
2022-08-09T13:07:55.996Z,90.1
2022-08-09T13:13:13.064Z,91.4
2022-08-09T13:18:20.201Z,92
2022-08-09T13:25:03.442Z,90.7
2022-08-09T13:28:03.189Z,90.4
2022-08-09T13:33:16.825Z,90.1
2022-08-09T13:41:21.412Z,90.4
2022-08-09T13:43:19.060Z,90.5
2022-08-09T13:48:16.618Z,91.1
2022-08-09T13:53:19.499Z,90.9
2022-08-09T13:58:28.706Z,91.5
2022-08-09T14:04:13.965Z,90.7
2022-08-09T14:08:36.028Z,90.9
2022-08-09T14:14:36.093Z,90.5
2022-08-09T14:18:45.545Z,89.7
2022-08-09T14:24:10.571Z,90.1
2022-08-09T14:28:52.427Z,90
2022-08-09T14:33:57.724Z,91.1
2022-08-09T14:39:08.802Z,91
2022-08-09T14:44:16.328Z,91
2022-08-09T14:49:18.256Z,92.4
2022-08-09T14:54:29.248Z,92
2022-08-09T14:59:28.568Z,91.5
2022-08-09T15:04:32.240Z,91.8
2022-08-09T15:10:17.784Z,92.1
2022-08-09T15:14:41.848Z,92.2
2022-08-09T15:20:04.799Z,92.3
2022-08-09T15:24:50.615Z,92.7
2022-08-09T15:31:19.433Z,93.1
2022-08-09T15:35:40.538Z,93.4
2022-08-09T15:40:20.941Z,93.7
2022-08-09T15:45:11.051Z,94
2022-08-09T15:50:16.863Z,94.7
2022-08-09T15:55:24.625Z,95.1
2022-08-09T16:00:36.150Z,95.8
2022-08-09T16:06:05.297Z,95.6
2022-08-09T16:10:59.087Z,95.6
2022-08-09T16:16:26.332Z,96.8
2022-08-09T16:20:50.879Z,96.9
2022-08-09T16:26:03.880Z,97.8
2022-08-09T16:31:02.086Z,97.9
2022-08-09T16:36:18.362Z,98
2022-08-09T16:41:19.938Z,98.3
2022-08-09T16:46:12.312Z,98.1
2022-08-09T16:51:17.054Z,98.4
2022-08-09T16:56:31.358Z,98.6
2022-08-09T17:01:28.554Z,99.7
2022-08-09T17:09:43.651Z,99.8
2022-08-09T17:11:44.459Z,99.9
2022-08-09T17:16:30.490Z,99.9
2022-08-09T17:21:41.516Z,99.9
2022-08-09T17:26:55.805Z,99.9
2022-08-09T17:32:02.712Z,99.9
2022-08-09T17:37:05.984Z,99.9
2022-08-09T17:42:59.018Z,99.9
2022-08-09T17:47:13.768Z,99.9
2022-08-09T17:52:36.280Z,99.9
2022-08-09T17:58:11.422Z,99.9
2022-08-09T18:02:37.413Z,99.9
2022-08-09T18:07:37.929Z,99.9
2022-08-09T18:14:14.881Z,99.9
2022-08-09T18:18:32.644Z,99.9
2022-08-09T18:22:57.467Z,99.9
2022-08-09T18:30:48.704Z,99.9
2022-08-09T18:33:29.244Z,99.9
2022-08-09T18:38:16.860Z,99.9
2022-08-09T18:43:20.088Z,99.9
2022-08-09T18:48:36.473Z,99.9
2022-08-09T18:54:19.926Z,99.1
2022-08-09T18:58:39.936Z,97.9
2022-08-09T19:04:10.064Z,97.2
2022-08-09T19:08:32.493Z,97.6
2022-08-09T19:14:00.376Z,96.5
2022-08-09T19:18:46.844Z,96.2
2022-08-09T19:26:04.748Z,96.2
2022-08-09T19:28:52.715Z,96.1
2022-08-09T19:33:55.572Z,95.9
2022-08-09T19:39:03.671Z,96.1
2022-08-09T19:44:05.654Z,98.7
2022-08-09T19:50:55.336Z,99.9
2022-08-09T19:54:15.633Z,99.9
2022-08-09T20:00:11.113Z,99.9
2022-08-09T20:04:56.222Z,99.9
2022-08-09T20:09:48.537Z,99.3
2022-08-09T20:14:33.656Z,97.9
2022-08-09T20:19:56.885Z,96.9
2022-08-09T20:29:44.729Z,96.5
2022-08-09T20:34:53.892Z,95.7
2022-08-09T20:40:29.872Z,95.6
2022-08-09T20:46:46.160Z,95.7
2022-08-09T20:50:46.799Z,95.5
2022-08-09T20:55:20.398Z,95.3
2022-08-09T21:00:34.222Z,95.2
2022-08-09T21:10:40.417Z,95.5
2022-08-09T21:16:01.223Z,95.7
2022-08-09T21:20:56.121Z,95.6
2022-08-09T21:26:03.153Z,95.7
2022-08-09T21:30:58.373Z,96
2022-08-09T21:36:04.680Z,95.9
2022-08-09T21:41:02.902Z,96.3
2022-08-09T21:46:15.678Z,95.8
2022-08-09T21:51:45.346Z,96
2022-08-09T21:56:57.018Z,96.2
2022-08-09T22:02:04.813Z,96.2
2022-08-09T22:06:38.130Z,96.4
2022-08-09T22:12:33.305Z,96.4
2022-08-09T22:16:46.523Z,96.2
2022-08-09T22:21:56.283Z,96.3
2022-08-09T22:26:59.764Z,96.3
2022-08-09T22:32:02.319Z,96.7
2022-08-09T22:37:07.957Z,97
2022-08-09T22:42:23.197Z,97.3
2022-08-09T22:48:38.748Z,98
2022-08-09T22:52:16.591Z,98.2
2022-08-09T22:57:37.433Z,98.3
2022-08-09T23:02:31.866Z,98.3
2022-08-09T23:08:32.835Z,98.7
2022-08-09T23:12:36.703Z,98.7
2022-08-09T23:17:39.282Z,98.9
2022-08-09T23:22:42.092Z,99.1
2022-08-09T23:28:18.267Z,99.1
2022-08-09T23:32:50.684Z,99.2
2022-08-09T23:37:52.969Z,99.2
2022-08-09T23:42:55.520Z,99.4
2022-08-09T23:47:58.225Z,99.4
2022-08-09T23:53:02.669Z,99.8
2022-08-09T23:58:30.902Z,99.9
